Time;durP1;ratioP1;P1;durP2;ratioP2;P2;SDS_P1;SDS_P2;PMS_P1;PMS_P2;Temp;Humidity;BMP_temperature;BMP_pressure;BME280_temperature;BME280_humidity;BME280_pressure;Samples;Min_cycle;Max_cycle;Signal;HPM_P1;HPM_P2
2021/11/29 00:01:15;;;;;;;5.70;3.63;;;4.00;99.90;;;;;;5009984;28;20029;-86
2021/11/29 00:03:41;;;;;;;5.83;3.37;;;3.90;99.90;;;;;;5018024;28;20025;-83
2021/11/29 00:06:07;;;;;;;6.03;3.83;;;3.90;99.90;;;;;;5019948;28;20044;-85
2021/11/29 00:08:33;;;;;;;5.13;3.40;;;3.90;99.90;;;;;;4989002;28;20297;-83
2021/11/29 00:10:58;;;;;;;6.43;3.53;;;3.80;99.90;;;;;;5015302;28;20022;-87
2021/11/29 00:13:24;;;;;;;6.07;3.40;;;3.70;99.90;;;;;;5008955;28;20101;-85
2021/11/29 00:15:50;;;;;;;5.67;3.67;;;3.70;99.90;;;;;;5016070;28;20034;-84
2021/11/29 00:18:16;;;;;;;5.20;3.37;;;3.70;99.90;;;;;;5034751;28;20025;-80
2021/11/29 00:20:44;;;;;;;5.67;3.27;;;3.70;99.90;;;;;;5012589;28;20029;-85
2021/11/29 00:23:11;;;;;;;5.57;3.50;;;3.60;99.90;;;;;;4997869;28;20060;-84
2021/11/29 00:25:37;;;;;;;5.97;3.47;;;3.70;99.90;;;;;;5027020;28;20021;-86
2021/11/29 00:28:02;;;;;;;5.67;3.47;;;3.60;99.90;;;;;;5019263;28;20118;-85
2021/11/29 00:30:28;;;;;;;5.37;3.07;;;3.60;99.90;;;;;;5011058;28;20064;-83
2021/11/29 00:32:54;;;;;;;6.00;3.30;;;3.70;99.90;;;;;;5017070;28;20030;-80
2021/11/29 00:35:19;;;;;;;8.13;4.00;;;3.70;99.90;;;;;;5033841;28;20430;-81
2021/11/29 00:37:45;;;;;;;5.80;3.30;;;3.70;99.90;;;;;;5021214;28;20029;-86
2021/11/29 00:40:11;;;;;;;5.80;3.20;;;3.70;99.90;;;;;;5013771;28;20025;-79
2021/11/29 00:42:37;;;;;;;5.80;3.40;;;3.80;99.90;;;;;;5008759;28;20030;-82
2021/11/29 00:45:05;;;;;;;7.47;3.90;;;3.90;99.90;;;;;;5005035;28;20132;-81
2021/11/29 00:47:31;;;;;;;6.57;3.53;;;3.80;99.90;;;;;;5012537;28;20057;-82
2021/11/29 00:49:56;;;;;;;7.23;3.70;;;3.80;99.90;;;;;;5017124;28;20374;-83
2021/11/29 00:52:22;;;;;;;6.60;3.73;;;3.70;99.90;;;;;;5033559;28;20029;-83
2021/11/29 00:54:48;;;;;;;6.50;3.40;;;3.70;99.90;;;;;;5016199;28;20028;-83
2021/11/29 00:57:13;;;;;;;16.10;8.03;;;3.60;99.90;;;;;;5007017;28;20113;-79
2021/11/29 00:59:40;;;;;;;8.83;5.10;;;3.80;99.90;;;;;;5009774;28;20438;-83
2021/11/29 01:02:06;;;;;;;7.10;3.87;;;3.70;99.90;;;;;;5016512;28;20025;-81
2021/11/29 01:04:31;;;;;;;7.10;4.07;;;3.80;99.90;;;;;;5015900;28;20022;-82
2021/11/29 01:06:57;;;;;;;7.17;4.27;;;3.80;99.90;;;;;;5007374;28;20027;-84
2021/11/29 01:09:23;;;;;;;7.20;3.87;;;3.80;99.90;;;;;;5019878;28;20026;-84
2021/11/29 01:11:48;;;;;;;7.63;4.17;;;3.60;99.90;;;;;;5016755;28;20033;-84
2021/11/29 01:14:14;;;;;;;6.37;3.83;;;3.60;99.90;;;;;;4999556;28;20462;-79
2021/11/29 01:16:40;;;;;;;8.20;4.83;;;3.60;99.90;;;;;;5034148;28;20018;-84
2021/11/29 01:19:06;;;;;;;6.50;4.23;;;3.60;99.90;;;;;;5016357;28;20017;-85
2021/11/29 01:21:31;;;;;;;7.70;3.90;;;3.60;99.90;;;;;;5015901;28;20021;-85
2021/11/29 01:23:57;;;;;;;6.87;4.10;;;3.50;99.90;;;;;;5033835;28;20025;-83
2021/11/29 01:26:22;;;;;;;13.60;4.90;;;3.60;99.90;;;;;;5032954;28;20351;-80
2021/11/29 01:28:48;;;;;;;9.20;4.43;;;3.50;99.90;;;;;;5015882;28;20049;-79
2021/11/29 01:31:14;;;;;;;7.70;4.30;;;3.60;99.90;;;;;;5033041;28;20082;-80
2021/11/29 01:33:40;;;;;;;7.57;4.10;;;3.60;99.90;;;;;;5016176;28;20463;-86
2021/11/29 01:36:05;;;;;;;7.87;4.07;;;3.50;99.90;;;;;;5015437;28;20021;-81
2021/11/29 01:38:31;;;;;;;7.67;4.70;;;3.50;99.90;;;;;;4996600;28;20027;-86
2021/11/29 01:40:57;;;;;;;8.07;4.60;;;3.50;99.90;;;;;;5031580;28;20013;-82
2021/11/29 01:43:23;;;;;;;10.07;4.97;;;3.50;99.90;;;;;;5008268;28;20030;-83
2021/11/29 01:45:51;;;;;;;9.97;4.83;;;3.40;99.90;;;;;;5020156;28;20434;-82
2021/11/29 01:48:17;;;;;;;9.33;5.30;;;3.50;99.90;;;;;;5003512;28;20076;-82
2021/11/29 01:50:46;;;;;;;8.07;4.27;;;3.50;99.90;;;;;;5001729;28;20026;-83
2021/11/29 01:53:12;;;;;;;9.57;5.20;;;3.50;99.90;;;;;;5023023;28;20035;-84
2021/11/29 01:55:40;;;;;;;12.37;5.60;;;3.40;99.90;;;;;;5005416;28;20358;-85
2021/11/29 01:58:07;;;;;;;8.37;4.93;;;3.50;99.90;;;;;;5026132;28;20068;-84
2021/11/29 02:00:37;;;;;;;10.43;5.37;;;3.40;99.90;;;;;;5026110;28;20036;-81
2021/11/29 02:03:03;;;;;;;10.00;5.27;;;3.40;99.90;;;;;;5002380;28;20116;-84
2021/11/29 02:05:30;;;;;;;9.13;4.87;;;3.40;99.90;;;;;;5011363;28;20049;-83
2021/11/29 02:07:57;;;;;;;8.23;4.73;;;3.50;99.90;;;;;;5026654;28;20017;-86
2021/11/29 02:10:24;;;;;;;9.13;5.10;;;3.50;99.90;;;;;;5022464;28;20059;-85
2021/11/29 02:12:51;;;;;;;8.83;5.13;;;3.40;99.90;;;;;;5007823;28;20026;-84
2021/11/29 02:15:17;;;;;;;10.07;5.57;;;3.50;99.90;;;;;;5010889;28;20021;-86
2021/11/29 02:17:44;;;;;;;10.67;5.07;;;3.50;99.90;;;;;;5023665;28;20030;-86
2021/11/29 02:20:12;;;;;;;10.07;5.50;;;3.40;99.90;;;;;;5023690;28;20025;-83
2021/11/29 02:22:39;;;;;;;8.07;4.97;;;3.30;99.90;;;;;;5024124;28;20045;-86
2021/11/29 02:25:05;;;;;;;10.77;5.50;;;3.40;99.90;;;;;;5026737;28;20021;-89
2021/11/29 02:27:30;;;;;;;9.23;5.17;;;3.30;99.90;;;;;;5004393;28;20091;-89
2021/11/29 02:29:57;;;;;;;9.73;4.90;;;3.30;99.90;;;;;;5022750;28;20453;-85
2021/11/29 02:32:22;;;;;;;9.57;5.10;;;3.30;99.90;;;;;;5022871;28;20025;-84
2021/11/29 02:34:49;;;;;;;10.43;5.83;;;3.30;99.90;;;;;;5025593;28;20018;-85
2021/11/29 02:37:16;;;;;;;13.37;6.03;;;3.40;99.90;;;;;;5002541;28;20104;-83
2021/11/29 02:39:42;;;;;;;10.37;5.87;;;3.40;99.90;;;;;;5017862;28;20048;-87
2021/11/29 02:42:11;;;;;;;11.13;5.83;;;3.40;99.90;;;;;;5012379;28;20033;-87
2021/11/29 02:44:37;;;;;;;10.13;5.37;;;3.40;99.90;;;;;;5010448;28;20021;-83
2021/11/29 02:47:04;;;;;;;10.20;5.73;;;3.40;99.90;;;;;;4995906;28;20037;-82
2021/11/29 02:49:30;;;;;;;15.00;6.30;;;3.40;99.90;;;;;;5018442;28;20041;-84
2021/11/29 02:52:00;;;;;;;11.37;5.90;;;3.40;99.90;;;;;;5015590;28;20518;-83
2021/11/29 02:54:29;;;;;;;11.97;5.97;;;3.40;99.90;;;;;;5013876;28;20496;-81
2021/11/29 02:56:58;;;;;;;11.27;6.00;;;3.40;99.90;;;;;;5027388;28;20092;-82
2021/11/29 02:59:27;;;;;;;11.13;6.13;;;3.40;99.90;;;;;;5032474;28;20021;-85
2021/11/29 03:01:57;;;;;;;10.63;5.70;;;3.40;99.90;;;;;;5027513;28;20025;-83
2021/11/29 03:04:26;;;;;;;12.43;5.97;;;3.40;99.90;;;;;;5017214;28;20085;-81
2021/11/29 03:06:53;;;;;;;13.67;6.40;;;3.40;99.90;;;;;;5021393;28;20054;-80
2021/11/29 03:09:18;;;;;;;11.80;6.47;;;3.40;99.90;;;;;;5007306;28;20028;-81
2021/11/29 03:11:46;;;;;;;12.83;6.60;;;3.40;99.90;;;;;;5022967;28;20030;-81
2021/11/29 03:14:13;;;;;;;12.27;6.27;;;3.40;99.90;;;;;;5033689;28;20088;-79
2021/11/29 03:16:39;;;;;;;11.33;6.37;;;3.40;99.90;;;;;;5030928;28;20030;-79
2021/11/29 03:19:05;;;;;;;12.87;6.80;;;3.50;99.90;;;;;;5024287;28;20017;-79
2021/11/29 03:21:31;;;;;;;14.87;6.73;;;3.40;99.90;;;;;;5035459;28;20028;-80
2021/11/29 03:23:59;;;;;;;11.40;6.03;;;3.40;99.90;;;;;;5020718;28;20029;-80
2021/11/29 03:26:26;;;;;;;15.27;6.83;;;3.40;99.90;;;;;;5016691;28;20017;-81
2021/11/29 03:28:55;;;;;;;14.40;7.07;;;3.40;99.90;;;;;;5029104;28;20451;-81
2021/11/29 03:31:23;;;;;;;12.13;6.53;;;3.30;99.90;;;;;;5002510;28;20022;-80
2021/11/29 03:33:55;;;;;;;12.67;7.10;;;3.20;99.90;;;;;;5018171;28;20029;-81
2021/11/29 03:36:20;;;;;;;16.55;6.63;;;3.20;99.90;;;;;;5015389;28;20036;-81
2021/11/29 03:38:46;;;;;;;14.67;6.90;;;3.30;99.90;;;;;;5003715;28;20021;-81
2021/11/29 03:41:12;;;;;;;17.17;6.97;;;3.30;99.90;;;;;;5035339;28;20029;-81
2021/11/29 03:43:38;;;;;;;13.80;6.40;;;3.30;99.90;;;;;;5017905;28;20432;-81
2021/11/29 03:46:04;;;;;;;12.87;6.57;;;3.30;99.90;;;;;;5035918;28;20038;-81
2021/11/29 03:48:30;;;;;;;12.33;6.07;;;3.40;99.90;;;;;;5018103;28;20514;-81
2021/11/29 03:50:56;;;;;;;13.27;6.20;;;3.30;99.90;;;;;;5036240;28;20064;-82
2021/11/29 03:53:22;;;;;;;10.03;5.27;;;3.40;99.90;;;;;;5017800;28;20036;-81
2021/11/29 03:55:47;;;;;;;11.60;5.43;;;3.40;99.90;;;;;;5018569;28;20153;-81
2021/11/29 03:58:13;;;;;;;13.40;5.90;;;3.40;99.90;;;;;;5018286;28;20033;-81
2021/11/29 04:00:39;;;;;;;10.20;4.53;;;3.40;99.90;;;;;;5017911;28;20021;-81
2021/11/29 04:03:05;;;;;;;9.40;4.57;;;3.30;99.90;;;;;;5017939;28;20030;-80
2021/11/29 04:05:31;;;;;;;10.93;4.20;;;3.40;99.90;;;;;;5017015;28;20018;-80
2021/11/29 04:07:57;;;;;;;9.73;4.83;;;3.40;99.90;;;;;;5027268;28;20017;-80
2021/11/29 04:10:22;;;;;;;7.87;4.03;;;3.40;99.90;;;;;;5016229;28;20032;-80
2021/11/29 04:12:48;;;;;;;9.30;4.30;;;3.30;99.90;;;;;;5029341;28;20477;-80
2021/11/29 04:15:14;;;;;;;7.77;3.90;;;3.40;99.90;;;;;;5020760;28;20036;-79
2021/11/29 04:17:40;;;;;;;6.57;3.60;;;3.40;99.90;;;;;;5014613;28;20026;-80
2021/11/29 04:20:09;;;;;;;6.87;4.00;;;3.30;99.90;;;;;;5014189;28;20025;-79
2021/11/29 04:22:36;;;;;;;9.57;4.93;;;3.30;99.90;;;;;;5018489;28;20021;-80
2021/11/29 04:25:03;;;;;;;8.30;4.77;;;3.30;99.90;;;;;;5009799;28;20014;-80
2021/11/29 04:27:29;;;;;;;8.57;4.47;;;3.30;99.90;;;;;;5025596;28;20143;-80
2021/11/29 04:29:56;;;;;;;9.27;4.23;;;3.30;99.90;;;;;;5002429;28;20072;-80
2021/11/29 04:32:21;;;;;;;10.80;4.60;;;3.40;99.90;;;;;;5015360;28;20025;-80
2021/11/29 04:34:47;;;;;;;9.70;5.33;;;3.40;99.90;;;;;;5011425;28;20061;-80
2021/11/29 04:37:13;;;;;;;9.80;5.13;;;3.40;99.90;;;;;;5006149;28;20033;-80
2021/11/29 04:39:38;;;;;;;11.70;5.90;;;3.40;99.90;;;;;;5014419;28;20092;-80
2021/11/29 04:42:05;;;;;;;11.00;5.37;;;3.40;99.90;;;;;;5017256;28;20108;-80
2021/11/29 04:44:30;;;;;;;13.47;5.70;;;3.40;99.90;;;;;;5016412;28;20033;-80
2021/11/29 04:46:56;;;;;;;10.80;5.73;;;3.30;99.90;;;;;;5034928;28;20026;-80
2021/11/29 04:49:22;;;;;;;11.87;6.17;;;3.30;99.90;;;;;;5016802;28;20167;-79
2021/11/29 04:51:48;;;;;;;11.93;5.87;;;3.30;99.90;;;;;;5034643;28;20389;-79
2021/11/29 04:54:14;;;;;;;12.87;5.83;;;3.30;99.90;;;;;;5017151;28;20025;-80
2021/11/29 04:56:41;;;;;;;11.77;6.20;;;3.20;99.90;;;;;;5016601;28;20021;-80
2021/11/29 04:59:07;;;;;;;14.47;6.87;;;3.20;99.90;;;;;;5017161;28;20104;-80
2021/11/29 05:01:33;;;;;;;15.57;6.77;;;3.20;99.90;;;;;;5033833;28;20180;-79
2021/11/29 05:03:59;;;;;;;13.70;6.40;;;3.10;99.90;;;;;;5017061;28;20057;-80
2021/11/29 05:06:24;;;;;;;13.90;6.83;;;3.10;99.90;;;;;;5016333;28;20025;-80
2021/11/29 05:08:50;;;;;;;13.57;7.03;;;3.10;99.90;;;;;;5016430;28;20028;-80
2021/11/29 05:11:16;;;;;;;14.67;6.97;;;3.00;99.90;;;;;;5034529;28;20083;-80
2021/11/29 05:13:42;;;;;;;13.13;6.77;;;3.00;99.90;;;;;;5033776;28;20068;-80
2021/11/29 05:16:08;;;;;;;16.63;7.33;;;3.00;99.90;;;;;;5033800;28;20034;-80
2021/11/29 05:18:34;;;;;;;15.07;7.23;;;3.00;99.90;;;;;;5033636;28;20021;-80
2021/11/29 05:21:00;;;;;;;18.10;7.60;;;2.90;99.90;;;;;;5034159;28;20021;-80
2021/11/29 05:23:26;;;;;;;12.70;6.60;;;2.90;99.90;;;;;;5016038;28;20025;-80
2021/11/29 05:25:52;;;;;;;12.13;5.90;;;2.90;99.90;;;;;;5016404;28;20017;-81
2021/11/29 05:28:17;;;;;;;15.17;7.27;;;2.90;99.90;;;;;;5016742;28;20033;-80
2021/11/29 05:30:44;;;;;;;14.83;7.67;;;2.80;99.90;;;;;;5016199;28;20079;-80
2021/11/29 05:33:10;;;;;;;15.30;6.97;;;2.80;99.90;;;;;;5033937;28;20033;-80
2021/11/29 05:35:36;;;;;;;16.27;6.93;;;2.80;99.90;;;;;;5033494;28;20053;-80
2021/11/29 05:38:02;;;;;;;14.67;7.00;;;2.70;99.90;;;;;;5033773;28;20032;-80
2021/11/29 05:40:29;;;;;;;14.10;6.77;;;2.70;99.90;;;;;;5016009;28;20021;-80
2021/11/29 05:42:55;;;;;;;18.60;7.60;;;2.60;99.90;;;;;;5033914;28;20033;-82
2021/11/29 05:45:21;;;;;;;15.97;7.37;;;2.60;99.90;;;;;;5015529;28;20042;-78
2021/11/29 05:47:46;;;;;;;15.47;7.20;;;2.60;99.90;;;;;;5016544;28;20032;-80
2021/11/29 05:50:13;;;;;;;15.47;7.70;;;2.60;99.90;;;;;;5016430;28;20032;-81
2021/11/29 05:52:39;;;;;;;13.37;6.53;;;2.60;99.90;;;;;;5015927;28;20025;-80
2021/11/29 05:55:07;;;;;;;16.40;7.43;;;2.50;99.90;;;;;;5016633;28;20030;-80
2021/11/29 05:57:32;;;;;;;14.80;7.50;;;2.50;99.90;;;;;;5015840;28;20071;-81
2021/11/29 05:59:58;;;;;;;14.37;7.57;;;2.50;99.90;;;;;;5009629;28;20406;-80
2021/11/29 06:02:24;;;;;;;13.77;7.23;;;2.40;99.90;;;;;;5032205;28;20034;-78
2021/11/29 06:04:49;;;;;;;15.37;6.83;;;2.30;99.90;;;;;;5015454;28;20026;-81
2021/11/29 06:07:15;;;;;;;14.33;7.03;;;2.40;99.90;;;;;;4999275;28;20032;-80
2021/11/29 06:09:41;;;;;;;15.13;7.13;;;2.30;99.90;;;;;;4995824;28;20587;-80
2021/11/29 06:12:07;;;;;;;15.93;7.70;;;2.30;99.90;;;;;;5021904;28;20044;-80
2021/11/29 06:14:32;;;;;;;15.23;7.43;;;2.30;99.90;;;;;;5031557;28;20033;-82
2021/11/29 06:16:58;;;;;;;17.47;7.87;;;2.20;99.90;;;;;;5010896;28;20026;-81
2021/11/29 06:19:24;;;;;;;16.43;7.63;;;2.20;99.90;;;;;;5004727;28;20022;-80
2021/11/29 06:21:50;;;;;;;15.57;7.83;;;2.20;99.90;;;;;;5020784;28;20065;-85
2021/11/29 06:24:16;;;;;;;15.20;7.37;;;2.20;99.90;;;;;;5011500;28;20024;-82
2021/11/29 06:26:41;;;;;;;16.07;7.83;;;2.20;99.90;;;;;;5029833;28;20325;-82
2021/11/29 06:29:07;;;;;;;17.77;7.30;;;2.20;99.90;;;;;;5002040;28;20029;-79
2021/11/29 06:31:33;;;;;;;14.70;7.53;;;2.20;99.90;;;;;;5021849;28;20033;-78
2021/11/29 06:33:58;;;;;;;14.77;7.33;;;2.10;99.90;;;;;;5008688;28;20090;-78
2021/11/29 06:36:28;;;;;;;18.73;7.47;;;2.10;99.90;;;;;;5022104;28;20434;-78
2021/11/29 06:38:56;;;;;;;18.37;8.13;;;2.10;99.90;;;;;;5020833;28;20040;-81
2021/11/29 06:41:24;;;;;;;17.10;8.07;;;2.00;99.90;;;;;;5028558;28;20028;-78
2021/11/29 06:43:50;;;;;;;16.60;7.97;;;2.00;99.90;;;;;;5007061;28;20057;-80
2021/11/29 06:46:16;;;;;;;15.07;7.60;;;2.00;99.90;;;;;;4998929;28;20143;-82
2021/11/29 06:48:42;;;;;;;17.50;8.03;;;1.90;99.90;;;;;;4998554;28;20936;-82
2021/11/29 06:51:08;;;;;;;20.10;8.37;;;1.90;99.90;;;;;;5023700;28;20104;-81
2021/11/29 06:53:34;;;;;;;14.67;7.37;;;1.90;99.90;;;;;;5007431;28;20025;-79
2021/11/29 06:56:01;;;;;;;20.57;8.23;;;1.90;99.90;;;;;;5013471;28;20347;-83
2021/11/29 06:58:27;;;;;;;17.47;8.37;;;2.00;99.90;;;;;;5016998;28;20022;-82
2021/11/29 07:00:53;;;;;;;13.80;7.10;;;2.00;99.90;;;;;;5013585;28;20030;-83
2021/11/29 07:03:19;;;;;;;16.93;7.57;;;2.00;99.90;;;;;;5007809;28;20116;-82
2021/11/29 07:05:47;;;;;;;18.43;7.80;;;2.00;99.90;;;;;;5018419;28;20084;-80
2021/11/29 07:08:12;;;;;;;17.60;7.40;;;2.00;99.90;;;;;;5017384;28;20025;-79
2021/11/29 07:10:41;;;;;;;17.63;7.80;;;1.90;99.90;;;;;;4999082;28;20084;-83
2021/11/29 07:13:09;;;;;;;17.83;8.33;;;1.90;99.90;;;;;;5009157;28;20080;-80
2021/11/29 07:15:35;;;;;;;16.43;7.70;;;1.90;99.90;;;;;;5007920;28;20067;-79
2021/11/29 07:18:02;;;;;;;14.63;7.17;;;1.90;99.90;;;;;;5005493;28;20029;-80
2021/11/29 07:20:27;;;;;;;17.17;7.47;;;1.80;99.90;;;;;;5018068;28;20018;-78
2021/11/29 07:22:53;;;;;;;14.40;7.30;;;1.90;99.90;;;;;;5008736;28;20418;-78
2021/11/29 07:25:19;;;;;;;14.13;6.73;;;1.90;99.90;;;;;;5007047;28;20076;-79
2021/11/29 07:27:44;;;;;;;17.23;7.80;;;1.90;99.90;;;;;;5025614;28;20030;-78
2021/11/29 07:30:12;;;;;;;16.97;7.50;;;1.90;99.90;;;;;;5009086;28;20467;-79
2021/11/29 07:32:38;;;;;;;17.20;7.30;;;1.90;99.90;;;;;;5006085;28;20033;-82
2021/11/29 07:35:05;;;;;;;16.97;7.43;;;1.90;99.90;;;;;;5021241;28;20033;-80
2021/11/29 07:37:30;;;;;;;14.87;7.50;;;1.90;99.90;;;;;;5005127;28;20483;-81
2021/11/29 07:39:56;;;;;;;20.87;9.33;;;1.90;99.90;;;;;;5019092;28;20037;-80
2021/11/29 07:42:22;;;;;;;23.00;9.77;;;1.90;99.90;;;;;;5004558;28;20426;-77
2021/11/29 07:44:48;;;;;;;20.57;9.60;;;1.90;99.90;;;;;;5018843;28;20428;-77
2021/11/29 07:47:14;;;;;;;23.67;10.20;;;2.00;99.90;;;;;;5004855;28;20030;-78
2021/11/29 07:49:39;;;;;;;19.17;8.20;;;2.00;99.90;;;;;;4990959;28;20038;-78
2021/11/29 07:52:07;;;;;;;20.03;7.67;;;2.00;99.90;;;;;;4993978;28;20044;-78
2021/11/29 07:54:33;;;;;;;16.40;7.03;;;2.00;99.90;;;;;;4993303;28;20026;-80
2021/11/29 07:56:59;;;;;;;16.27;6.73;;;2.00;99.90;;;;;;4996097;28;20347;-80
2021/11/29 07:59:24;;;;;;;14.57;6.87;;;2.00;99.90;;;;;;5013664;28;20081;-83
2021/11/29 08:01:50;;;;;;;15.00;6.57;;;2.10;99.90;;;;;;5013131;28;20069;-83
2021/11/29 08:04:16;;;;;;;18.03;6.63;;;2.10;99.90;;;;;;4994898;28;20068;-79
2021/11/29 08:06:41;;;;;;;14.37;6.63;;;2.10;99.90;;;;;;4993906;28;20030;-80
2021/11/29 08:09:07;;;;;;;14.63;7.47;;;2.20;99.90;;;;;;5011938;28;20065;-79
2021/11/29 08:11:32;;;;;;;17.73;7.47;;;2.30;99.90;;;;;;4993869;28;20026;-80
2021/11/29 08:13:58;;;;;;;19.33;8.27;;;2.30;99.90;;;;;;4994648;28;20056;-80
2021/11/29 08:16:24;;;;;;;17.47;7.63;;;2.40;99.90;;;;;;4994150;28;20030;-77
2021/11/29 08:18:49;;;;;;;19.03;8.20;;;2.40;99.90;;;;;;4986604;28;20027;-80
2021/11/29 08:21:15;;;;;;;18.30;7.80;;;2.50;99.90;;;;;;5008184;28;20103;-80
2021/11/29 08:23:41;;;;;;;18.17;7.33;;;2.60;99.90;;;;;;5011297;28;20026;-80
2021/11/29 08:26:06;;;;;;;17.90;7.27;;;2.60;99.90;;;;;;5001033;28;20028;-80
2021/11/29 08:28:33;;;;;;;19.40;7.00;;;2.60;99.90;;;;;;4994976;28;20029;-79
2021/11/29 08:30:59;;;;;;;14.60;7.30;;;2.50;99.90;;;;;;4992054;28;20026;-79
2021/11/29 08:33:26;;;;;;;13.27;6.97;;;2.60;99.90;;;;;;5010856;28;20076;-80
2021/11/29 08:35:52;;;;;;;17.70;7.37;;;2.50;99.90;;;;;;5004707;28;20462;-82
2021/11/29 08:38:18;;;;;;;15.60;6.77;;;2.50;99.90;;;;;;4994287;28;20108;-81
2021/11/29 08:40:46;;;;;;;17.90;6.03;;;2.50;99.90;;;;;;4992318;28;20029;-83
2021/11/29 08:43:16;;;;;;;17.80;6.93;;;2.50;99.90;;;;;;4994120;28;20034;-83
2021/11/29 08:45:44;;;;;;;13.37;6.07;;;2.50;99.90;;;;;;4993229;28;20045;-85
2021/11/29 08:48:11;;;;;;;11.80;5.73;;;2.60;99.90;;;;;;5008439;28;20125;-88
2021/11/29 08:50:40;;;;;;;11.97;5.63;;;2.70;99.90;;;;;;5001275;28;20095;-84
2021/11/29 08:53:10;;;;;;;14.70;5.20;;;2.80;99.90;;;;;;5011691;28;20026;-83
2021/11/29 08:55:36;;;;;;;14.33;5.93;;;2.80;99.90;;;;;;5011607;28;20053;-83
2021/11/29 08:58:04;;;;;;;15.27;7.37;;;2.90;99.90;;;;;;5010512;28;20053;-83
2021/11/29 09:00:32;;;;;;;11.47;5.33;;;2.90;99.90;;;;;;5009792;28;20029;-80
2021/11/29 09:02:59;;;;;;;12.80;5.10;;;2.80;99.90;;;;;;5011319;28;20033;-81
2021/11/29 09:05:25;;;;;;;10.53;5.37;;;2.80;99.90;;;;;;4998460;28;20100;-79
2021/11/29 09:07:51;;;;;;;12.93;5.70;;;2.90;99.90;;;;;;5003622;28;20053;-79
2021/11/29 09:10:17;;;;;;;12.67;4.83;;;2.80;99.90;;;;;;5009044;28;20022;-82
2021/11/29 09:12:43;;;;;;;14.73;5.50;;;2.90;99.90;;;;;;5009223;28;20044;-79
2021/11/29 09:15:12;;;;;;;11.83;4.60;;;2.90;99.90;;;;;;5009879;28;20030;-79
2021/11/29 09:17:38;;;;;;;11.03;4.17;;;2.90;99.90;;;;;;5010115;28;20387;-79
2021/11/29 09:20:06;;;;;;;10.90;4.17;;;2.90;99.90;;;;;;4998397;28;20018;-80
2021/11/29 09:22:32;;;;;;;11.13;4.37;;;2.90;99.90;;;;;;5010817;28;20467;-79
2021/11/29 09:25:00;;;;;;;12.13;4.00;;;2.90;99.90;;;;;;5011096;28;20080;-82
2021/11/29 09:27:26;;;;;;;11.60;4.23;;;3.00;99.90;;;;;;5010684;28;20022;-80
2021/11/29 09:29:52;;;;;;;14.67;3.97;;;3.00;99.90;;;;;;5010288;28;20032;-80
2021/11/29 09:32:18;;;;;;;8.53;3.63;;;3.00;99.90;;;;;;5009816;28;20038;-80
2021/11/29 09:34:44;;;;;;;9.03;3.87;;;3.00;99.90;;;;;;5004994;28;20030;-79
2021/11/29 09:37:10;;;;;;;11.20;4.17;;;3.10;99.90;;;;;;5009596;28;20037;-78
2021/11/29 09:39:36;;;;;;;9.90;3.90;;;3.10;99.90;;;;;;5008566;28;20030;-80
2021/11/29 09:42:03;;;;;;;10.73;3.80;;;3.10;99.90;;;;;;5008393;28;20446;-79
2021/11/29 09:44:28;;;;;;;9.60;4.00;;;3.10;99.90;;;;;;5006107;28;20022;-78
2021/11/29 09:46:54;;;;;;;8.63;3.87;;;3.20;99.90;;;;;;5007040;28;20041;-78
2021/11/29 09:49:20;;;;;;;8.33;3.57;;;3.20;99.90;;;;;;5010426;28;20021;-78
2021/11/29 09:51:45;;;;;;;6.70;3.37;;;3.20;99.90;;;;;;5028568;28;20412;-80
2021/11/29 09:54:11;;;;;;;13.40;4.60;;;3.20;99.90;;;;;;5029625;28;20071;-80
2021/11/29 09:56:37;;;;;;;7.00;3.50;;;3.20;99.90;;;;;;5028788;28;20099;-80
2021/11/29 09:59:03;;;;;;;8.33;3.50;;;3.10;99.90;;;;;;5011464;28;20025;-80
2021/11/29 10:01:29;;;;;;;11.00;3.43;;;3.10;99.90;;;;;;5009659;28;20059;-79
2021/11/29 10:03:55;;;;;;;8.80;3.70;;;3.20;99.90;;;;;;5011147;28;20032;-80
2021/11/29 10:06:21;;;;;;;7.77;3.40;;;3.20;99.80;;;;;;5008866;28;20029;-79
2021/11/29 10:08:48;;;;;;;9.63;3.47;;;3.30;99.50;;;;;;5010204;28;20084;-80
2021/11/29 10:11:17;;;;;;;8.60;3.40;;;3.30;99.50;;;;;;5029668;28;20051;-81
2021/11/29 10:13:58;;;;;;;7.63;2.90;;;3.20;99.20;;;;;;5032317;28;20048;-81
2021/11/29 10:16:45;;;;;;;10.05;3.97;;;3.30;99.30;;;;;;5011795;28;20068;-81
2021/11/29 10:19:33;;;;;;;10.87;3.43;;;3.30;98.90;;;;;;5012363;28;20048;-81
2021/11/29 10:22:21;;;;;;;9.40;3.33;;;3.40;99.30;;;;;;5026200;28;20026;-81
2021/11/29 10:24:49;;;;;;;5.37;3.30;;;3.40;99.20;;;;;;5012380;28;20112;-83
2021/11/29 10:27:17;;;;;;;8.03;3.63;;;3.40;99.00;;;;;;5012630;28;20038;-83
2021/11/29 10:29:54;;;;;;;10.40;3.80;;;3.40;99.00;;;;;;5014569;28;20083;-82
2021/11/29 10:32:31;;;;;;;11.40;3.63;;;3.40;99.20;;;;;;5027670;28;20060;-78
2021/11/29 10:34:57;;;;;;;6.93;3.30;;;3.50;98.80;;;;;;5010677;28;20340;-79
2021/11/29 10:37:33;;;;;;;10.30;3.47;;;3.60;98.70;;;;;;5015550;28;20155;-80
2021/11/29 10:39:59;;;;;;;8.20;3.50;;;3.60;98.60;;;;;;5028840;28;20018;-80
2021/11/29 10:42:27;;;;;;;7.73;3.67;;;3.70;98.50;;;;;;5013191;28;20030;-77
2021/11/29 10:44:54;;;;;;;8.53;3.47;;;3.70;98.00;;;;;;5029012;28;20128;-80
2021/11/29 10:47:22;;;;;;;7.40;3.60;;;3.70;97.60;;;;;;4998827;28;20079;-81
2021/11/29 10:49:53;;;;;;;9.83;3.87;;;3.60;98.10;;;;;;4990800;28;20100;-81
2021/11/29 10:52:28;;;;;;;9.43;3.65;;;3.70;98.30;;;;;;4988507;28;20049;-80
2021/11/29 10:54:56;;;;;;;7.07;3.10;;;3.60;98.10;;;;;;4988960;28;20378;-79
2021/11/29 10:57:23;;;;;;;5.73;2.90;;;3.70;97.80;;;;;;5012556;28;20029;-78
2021/11/29 10:59:50;;;;;;;7.37;3.23;;;3.60;97.80;;;;;;4976891;28;20023;-80
2021/11/29 11:02:18;;;;;;;6.90;3.40;;;3.60;97.50;;;;;;5001193;28;20022;-82
2021/11/29 11:05:00;;;;;;;6.40;3.70;;;3.60;97.50;;;;;;4987401;28;20037;-80
2021/11/29 11:07:26;;;;;;;7.10;3.42;;;3.60;97.60;;;;;;4992192;28;20034;-78
2021/11/29 11:10:00;;;;;;;7.40;3.40;;;3.60;97.60;;;;;;5010953;28;20036;-79
2021/11/29 11:12:36;;;;;;;7.37;3.80;;;3.60;97.80;;;;;;4986751;28;20038;-78
2021/11/29 11:15:14;;;;;;;6.93;3.30;;;3.60;97.50;;;;;;4983081;28;20037;-79
2021/11/29 11:17:40;;;;;;;7.83;3.60;;;3.60;97.60;;;;;;5000595;28;20064;-82
2021/11/29 11:20:15;;;;;;;8.10;3.27;;;3.70;97.60;;;;;;4978028;28;20500;-80
2021/11/29 11:22:46;;;;;;;7.20;3.27;;;3.80;97.60;;;;;;4977220;28;20113;-79
2021/11/29 11:25:14;;;;;;;6.38;3.42;;;3.80;97.20;;;;;;4983439;28;20061;-81
2021/11/29 11:28:03;;;;;;;7.37;3.40;;;3.80;97.10;;;;;;4985369;28;20034;-80
2021/11/29 11:30:32;;;;;;;7.10;3.40;;;3.80;97.10;;;;;;4990234;28;20116;-80
2021/11/29 11:33:04;;;;;;;5.73;3.30;;;3.90;97.30;;;;;;4983282;28;20031;-83
2021/11/29 11:35:32;;;;;;;;;;;3.80;97.10;;;;;;4982371;28;20037;-78
2021/11/29 11:38:11;;;;;;;6.93;2.87;;;3.80;96.80;;;;;;4991097;28;19912;-80
2021/11/29 11:40:39;;;;;;;10.00;3.37;;;3.90;96.80;;;;;;4980420;28;20026;-78
2021/11/29 11:43:08;;;;;;;5.93;3.23;;;3.80;97.50;;;;;;4983069;28;20030;-80
2021/11/29 11:45:40;;;;;;;6.53;3.60;;;3.80;96.60;;;;;;4990836;28;20490;-80
2021/11/29 11:48:09;;;;;;;16.93;6.67;;;3.70;96.90;;;;;;5019560;28;20034;-79
2021/11/29 11:50:37;;;;;;;9.33;3.93;;;3.80;97.10;;;;;;5020200;28;20450;-82
2021/11/29 11:53:05;;;;;;;8.90;3.23;;;3.70;97.20;;;;;;5020894;28;20545;-81
2021/11/29 11:55:38;;;;;;;5.60;3.27;;;3.80;97.30;;;;;;5020573;28;20080;-80
2021/11/29 11:58:15;;;;;;;6.80;2.83;;;3.80;97.30;;;;;;5018417;28;20030;-77
2021/11/29 12:01:11;;;;;;;6.30;3.07;;;3.80;97.00;;;;;;5019718;28;20075;-82
2021/11/29 12:03:39;;;;;;;5.17;3.10;;;3.80;97.20;;;;;;5009957;28;20477;-79
2021/11/29 12:06:13;;;;;;;9.97;3.20;;;3.80;97.10;;;;;;5009005;28;20026;-79
2021/11/29 12:08:47;;;;;;;8.17;3.27;;;3.80;97.30;;;;;;5026876;28;20477;-78
2021/11/29 12:11:29;;;;;;;8.60;3.00;;;3.80;97.40;;;;;;5008276;28;20060;-78
2021/11/29 12:14:20;;;;;;;7.23;3.27;;;3.90;97.70;;;;;;5018234;28;20111;-77
2021/11/29 12:16:52;;;;;;;5.93;2.80;;;3.90;97.20;;;;;;5025812;28;20080;-80
2021/11/29 12:19:48;;;;;;;9.40;3.37;;;3.90;97.00;;;;;;5002469;28;20083;-79
2021/11/29 12:22:16;;;;;;;7.60;2.80;;;3.80;97.20;;;;;;5001226;28;20037;-79
2021/11/29 12:24:55;;;;;;;5.20;2.90;;;3.90;96.90;;;;;;5007187;28;20068;-79
2021/11/29 12:27:22;;;;;;;7.27;2.90;;;3.90;96.30;;;;;;4998936;28;20029;-80
2021/11/29 12:29:53;;;;;;;4.30;2.57;;;3.90;96.50;;;;;;5016508;28;20026;-82
2021/11/29 12:32:23;;;;;;;5.30;2.58;;;3.90;96.40;;;;;;5004899;28;20096;-80
2021/11/29 12:34:54;;;;;;;6.43;2.70;;;3.90;96.70;;;;;;5028985;28;20049;-80
2021/11/29 12:37:31;;;;;;;6.53;2.60;;;3.90;96.90;;;;;;4999046;28;20032;-79
2021/11/29 12:40:15;;;;;;;8.33;2.80;;;3.90;96.70;;;;;;5002290;28;20322;-79
2021/11/29 12:42:42;;;;;;;4.73;2.63;;;4.00;96.60;;;;;;5009267;28;20124;-81
2021/11/29 12:45:08;;;;;;;7.13;3.00;;;4.00;96.70;;;;;;5005894;28;20141;-82
2021/11/29 12:47:45;;;;;;;6.87;2.70;;;3.90;96.80;;;;;;4998956;28;20034;-78
2021/11/29 12:50:30;;;;;;;6.63;2.37;;;4.00;96.80;;;;;;5005271;28;20394;-80
2021/11/29 12:53:13;;;;;;;6.87;2.70;;;4.00;96.60;;;;;;5008397;28;20033;-79